Vestaburg, Michigan
Current Conditions -  °F | °C
As of 7:33 AM on Friday 31 Oct 2014 (Local Time) from KAMN Reporting Station
Light Rain Light Rain  
Wind Chill: 41°   Ceiling: 1800
Heat Index: 41°   Visibility: 7mi
Dew Point: 39°   Wind: 3mph
Humidity: 94%   Direction: 270°W
Pressure: 29.9"   Gusts: NA
Location:  43.4°N, 84.91°W
Report Text: KAMN 311133Z AUTO 27003KT 7SM -RA OVC018 05/04 A2990 RMK AO2 T00500041
Loading
Personal Weather Stations






























Interactive Weather Map
Tropical Storm Tracking
New forecast layout! Learn more

10-Day Weather Forecast

Advertisements
Track Severe Weather on mobile